createdAt,value
2022-08-07T00:00:39.973Z,21.52
2022-08-07T00:03:08.750Z,21.50
2022-08-07T00:05:37.263Z,21.60
2022-08-07T00:08:05.516Z,21.74
2022-08-07T00:10:35.997Z,21.70
2022-08-07T00:13:23.676Z,21.84
2022-08-07T00:15:55.231Z,21.97
2022-08-07T00:18:25.116Z,21.74
2022-08-07T00:20:54.425Z,21.76
2022-08-07T00:23:22.598Z,21.73
2022-08-07T00:25:52.144Z,21.87
2022-08-07T00:28:33.582Z,21.82
2022-08-07T00:31:12.823Z,21.79
2022-08-07T00:33:47.610Z,21.61
2022-08-07T00:36:16.915Z,21.67
2022-08-07T00:38:44.889Z,21.69
2022-08-07T00:41:14.696Z,21.53
2022-08-07T00:43:59.639Z,21.54
2022-08-07T00:46:33.220Z,21.79
2022-08-07T00:49:03.075Z,21.78
2022-08-07T00:51:58.525Z,21.90
2022-08-07T00:54:20.062Z,21.78
2022-08-07T00:56:49.946Z,21.63
2022-08-07T00:59:18.007Z,21.54
2022-08-07T01:01:50.814Z,21.60
2022-08-07T01:04:25.853Z,21.68
2022-08-07T01:06:58.186Z,21.82
2022-08-07T01:09:35.680Z,21.73
2022-08-07T01:12:29.954Z,21.61
2022-08-07T01:15:01.693Z,21.79
2022-08-07T01:17:34.031Z,21.55
2022-08-07T01:20:08.872Z,21.48
2022-08-07T01:22:46.576Z,21.36
2022-08-07T01:25:39.873Z,21.29
2022-08-07T01:28:03.960Z,21.13
2022-08-07T01:30:33.331Z,21.11
2022-08-07T01:33:02.295Z,21.21
2022-08-07T01:35:52.563Z,21.23
2022-08-07T01:38:25.637Z,21.16
2022-08-07T01:40:56.350Z,21.07
2022-08-07T01:43:25.940Z,21.04
2022-08-07T01:45:54.754Z,21.06
2022-08-07T01:48:30.761Z,21.02
2022-08-07T01:51:24.708Z,20.94
2022-08-07T01:54:12.097Z,21.00
2022-08-07T01:56:49.430Z,20.99
2022-08-07T01:59:23.625Z,21.05
2022-08-07T02:02:04.325Z,21.23
2022-08-07T02:04:55.743Z,21.16
2022-08-07T02:07:36.123Z,21.08
2022-08-07T02:10:19.900Z,20.94
2022-08-07T02:12:50.505Z,20.89
2022-08-07T02:15:23.156Z,20.96
2022-08-07T02:17:56.492Z,20.97
2022-08-07T02:20:25.644Z,20.96
2022-08-07T02:22:57.570Z,21.03
2022-08-07T02:26:10.110Z,20.93
2022-08-07T02:28:25.388Z,20.97
2022-08-07T02:30:54.763Z,20.91
2022-08-07T02:33:24.694Z,20.86
2022-08-07T02:36:28.441Z,20.88
2022-08-07T02:38:56.708Z,20.91
2022-08-07T02:41:33.606Z,20.91
2022-08-07T02:44:06.057Z,20.92
2022-08-07T02:46:36.904Z,20.75
2022-08-07T02:49:05.466Z,20.65
2022-08-07T02:51:42.492Z,20.66
2022-08-07T02:54:21.318Z,20.66
2022-08-07T02:56:55.888Z,20.94
2022-08-07T02:59:28.312Z,20.77
2022-08-07T03:02:01.113Z,20.61
2022-08-07T03:04:31.586Z,20.52
2022-08-07T03:07:07.104Z,20.44
2022-08-07T03:09:44.659Z,20.47
2022-08-07T03:12:22.651Z,20.39
2022-08-07T03:15:02.226Z,20.29
2022-08-07T03:17:52.743Z,20.24
2022-08-07T03:20:21.290Z,20.24
2022-08-07T03:22:50.920Z,20.27
2022-08-07T03:25:20.908Z,20.28
2022-08-07T03:27:59.345Z,20.20
2022-08-07T03:30:39.393Z,20.19
2022-08-07T03:33:10.582Z,20.17
2022-08-07T03:35:44.175Z,20.18
2022-08-07T03:38:20.967Z,20.30
2022-08-07T03:40:57.467Z,20.26
2022-08-07T03:43:32.288Z,20.18
2022-08-07T03:46:02.759Z,20.27
2022-08-07T03:48:32.983Z,20.25
2022-08-07T03:51:01.632Z,20.19
2022-08-07T03:54:02.103Z,20.23
2022-08-07T03:56:32.725Z,20.22
2022-08-07T03:59:09.551Z,20.11
2022-08-07T04:01:45.514Z,20.07
2022-08-07T04:04:17.421Z,20.11
2022-08-07T04:06:45.691Z,20.16
2022-08-07T04:09:15.881Z,20.30
2022-08-07T04:12:24.393Z,20.32
2022-08-07T04:14:38.542Z,20.27
2022-08-07T04:17:20.455Z,20.10
2022-08-07T04:20:01.259Z,20.04
2022-08-07T04:22:30.000Z,20.03
2022-08-07T04:25:00.974Z,19.96
2022-08-07T04:27:35.830Z,20.15
2022-08-07T04:30:21.477Z,20.03
2022-08-07T04:33:02.590Z,20.08
2022-08-07T04:35:35.766Z,20.13
2022-08-07T04:38:07.853Z,20.02
2022-08-07T04:40:36.604Z,19.96
2022-08-07T04:43:22.120Z,20.00
2022-08-07T04:46:26.039Z,19.93
2022-08-07T04:49:18.358Z,19.90
2022-08-07T04:52:01.503Z,19.93
2022-08-07T04:54:35.775Z,19.96
2022-08-07T04:58:12.545Z,19.92
2022-08-07T05:00:11.845Z,19.87
2022-08-07T05:02:57.895Z,19.79
2022-08-07T05:05:52.791Z,19.84
2022-08-07T05:08:59.713Z,19.85
2022-08-07T05:11:19.759Z,19.85
2022-08-07T05:14:54.220Z,19.81
2022-08-07T05:16:53.005Z,19.83
2022-08-07T05:19:44.005Z,19.85
2022-08-07T05:22:19.027Z,19.79
2022-08-07T05:24:59.508Z,19.82
2022-08-07T05:28:03.029Z,19.88
2022-08-07T05:30:29.926Z,19.91
2022-08-07T05:33:03.342Z,19.91
2022-08-07T05:35:41.586Z,19.98
2022-08-07T05:38:10.971Z,19.92
2022-08-07T05:40:42.783Z,19.83
2022-08-07T05:43:19.833Z,19.83
2022-08-07T05:46:08.139Z,19.80
2022-08-07T05:48:36.485Z,19.80
2022-08-07T05:51:31.814Z,19.87
2022-08-07T05:54:12.140Z,19.91
2022-08-07T05:56:51.419Z,19.90
2022-08-07T05:59:22.038Z,19.91
2022-08-07T06:01:51.591Z,20.06
2022-08-07T06:04:22.436Z,20.07
2022-08-07T06:07:04.415Z,20.13
2022-08-07T06:09:44.918Z,20.16
2022-08-07T06:12:31.767Z,20.18
2022-08-07T06:15:05.563Z,20.28
2022-08-07T06:17:37.578Z,20.30
2022-08-07T06:20:12.776Z,20.31
2022-08-07T06:23:02.188Z,20.27
2022-08-07T06:25:54.712Z,20.30
2022-08-07T06:28:27.689Z,20.32
2022-08-07T06:30:58.299Z,20.51
2022-08-07T06:33:27.220Z,20.42
2022-08-07T06:36:12.918Z,20.49
2022-08-07T06:38:51.669Z,20.65
2022-08-07T06:42:00.879Z,20.55
2022-08-07T06:44:26.122Z,20.52
2022-08-07T06:47:09.812Z,20.43
2022-08-07T06:49:50.752Z,20.41
2022-08-07T06:52:31.419Z,20.33
2022-08-07T06:55:33.101Z,20.42
2022-08-07T06:57:58.318Z,20.65
2022-08-07T07:00:28.300Z,20.49
2022-08-07T07:03:00.918Z,20.44
2022-08-07T07:06:03.307Z,20.46
2022-08-07T07:08:27.683Z,20.51
2022-08-07T07:10:57.864Z,20.72
2022-08-07T07:13:55.985Z,20.66
2022-08-07T07:16:27.509Z,20.63
2022-08-07T07:19:00.745Z,21.03
2022-08-07T07:22:04.812Z,21.06
2022-08-07T07:24:32.295Z,20.94
2022-08-07T07:27:04.391Z,20.90
2022-08-07T07:29:57.196Z,20.87
2022-08-07T07:32:26.164Z,21.09
2022-08-07T07:34:57.828Z,21.17
2022-08-07T07:37:47.323Z,21.16
2022-08-07T07:40:21.479Z,21.06
2022-08-07T07:42:58.596Z,21.09
2022-08-07T07:46:37.035Z,21.13
2022-08-07T07:48:35.699Z,21.17
2022-08-07T07:51:08.152Z,21.27
2022-08-07T07:53:51.849Z,21.30
2022-08-07T07:56:30.036Z,21.62
2022-08-07T07:59:02.134Z,21.89
2022-08-07T08:02:03.775Z,21.98
2022-08-07T08:04:25.842Z,21.98
2022-08-07T08:06:56.460Z,21.83
2022-08-07T08:09:30.695Z,21.74
2022-08-07T08:12:50.128Z,21.63
2022-08-07T08:15:09.993Z,21.54
2022-08-07T08:17:57.160Z,21.48
2022-08-07T08:20:32.127Z,21.52
2022-08-07T08:23:18.372Z,21.55
2022-08-07T08:26:10.269Z,21.68
2022-08-07T08:28:43.375Z,21.89
2022-08-07T08:31:30.151Z,21.74
2022-08-07T08:34:09.767Z,21.76
2022-08-07T08:36:46.145Z,21.74
2022-08-07T08:39:15.349Z,21.67
2022-08-07T08:41:57.556Z,21.73
2022-08-07T08:44:33.168Z,21.70
2022-08-07T08:47:09.818Z,21.91
2022-08-07T08:50:02.239Z,22.04
2022-08-07T08:52:40.775Z,21.94
2022-08-07T08:55:55.238Z,22.22
2022-08-07T08:58:28.407Z,22.14
2022-08-07T09:01:15.304Z,22.18
2022-08-07T09:03:53.251Z,22.29
2022-08-07T09:06:47.853Z,22.38
2022-08-07T09:09:36.538Z,22.36
2022-08-07T09:12:30.606Z,22.50
2022-08-07T09:16:23.336Z,22.55
2022-08-07T09:18:22.285Z,22.68
2022-08-07T09:21:06.888Z,22.78
2022-08-07T09:24:31.665Z,22.87
2022-08-07T09:26:57.002Z,22.91
2022-08-07T09:30:03.991Z,23.01
2022-08-07T09:32:38.792Z,23.10
2022-08-07T09:36:03.026Z,23.09
2022-08-07T09:38:17.958Z,23.07
2022-08-07T09:41:01.338Z,23.15
2022-08-07T09:44:05.569Z,23.13
2022-08-07T09:47:49.767Z,23.16
2022-08-07T09:50:02.859Z,23.13
2022-08-07T09:52:51.899Z,23.21
2022-08-07T09:55:29.590Z,23.27
2022-08-07T09:58:32.279Z,23.17
2022-08-07T10:01:51.200Z,23.21
2022-08-07T10:04:32.896Z,23.14
2022-08-07T10:07:24.144Z,23.26
2022-08-07T10:10:22.899Z,23.18
2022-08-07T10:16:29.611Z,23.25
2022-08-07T10:19:25.178Z,23.40
2022-08-07T10:22:15.636Z,23.37
2022-08-07T10:24:55.204Z,23.49
2022-08-07T10:27:46.598Z,23.53
2022-08-07T10:40:48.481Z,23.49
2022-08-07T10:43:34.173Z,23.50
2022-08-07T10:46:10.333Z,23.37
2022-08-07T10:48:48.575Z,23.57
2022-08-07T10:51:57.395Z,23.30
2022-08-07T10:54:27.142Z,23.28
2022-08-07T10:57:11.497Z,23.21
2022-08-07T11:00:03.348Z,23.12
2022-08-07T11:02:40.251Z,23.16
2022-08-07T11:05:20.009Z,23.25
2022-08-07T11:08:03.517Z,23.23
2022-08-07T11:10:39.235Z,23.37
2022-08-07T11:14:42.272Z,23.51
2022-08-07T11:16:07.512Z,23.56
2022-08-07T11:18:42.408Z,23.68
2022-08-07T11:21:15.951Z,23.58
2022-08-07T11:23:53.799Z,23.44
2022-08-07T11:26:28.158Z,23.72
2022-08-07T11:29:05.731Z,23.66
2022-08-07T11:31:47.834Z,23.48
2022-08-07T11:34:29.548Z,23.45
2022-08-07T11:37:06.689Z,23.40
2022-08-07T11:40:01.060Z,23.30
2022-08-07T11:42:40.824Z,23.35
2022-08-07T11:45:20.693Z,23.44
2022-08-07T11:48:13.837Z,23.35
2022-08-07T11:51:01.506Z,23.25
2022-08-07T11:57:20.563Z,23.26
2022-08-07T13:37:29.182Z,24.19
2022-08-07T13:40:35.354Z,24.32
2022-08-07T13:43:11.941Z,24.37
2022-08-07T13:46:12.413Z,24.41
2022-08-07T13:48:34.716Z,24.51
2022-08-07T13:51:27.737Z,24.45
2022-08-07T13:54:01.620Z,24.66
2022-08-07T13:56:35.548Z,24.60
2022-08-07T13:59:13.021Z,24.63
2022-08-07T14:01:59.259Z,24.61
2022-08-07T14:04:35.724Z,24.65
2022-08-07T14:07:09.425Z,24.70
2022-08-07T14:10:02.191Z,24.73
2022-08-07T14:12:41.566Z,24.83
2022-08-07T14:15:18.560Z,25.04
2022-08-07T14:18:24.187Z,25.26
2022-08-07T14:20:42.806Z,25.27
2022-08-07T14:23:31.580Z,25.27
2022-08-07T14:26:28.638Z,25.31
2022-08-07T14:29:05.928Z,25.41
2022-08-07T14:31:53.439Z,25.68
2022-08-07T14:34:29.716Z,25.70
2022-08-07T14:37:01.604Z,25.70
2022-08-07T14:40:17.800Z,25.77
2022-08-07T14:42:27.606Z,25.79
2022-08-07T14:45:21.934Z,25.77
2022-08-07T14:47:58.512Z,25.73
2022-08-07T14:50:37.520Z,25.78
2022-08-07T14:53:09.668Z,25.65
2022-08-07T14:58:32.699Z,25.56
2022-08-07T15:04:12.399Z,25.57
2022-08-07T15:06:40.591Z,25.57
2022-08-07T15:12:08.835Z,25.46
2022-08-07T15:17:33.056Z,25.40
2022-08-07T15:20:32.723Z,25.39
2022-08-07T15:28:35.039Z,25.29
2022-08-07T15:31:12.231Z,25.28
2022-08-07T15:34:01.257Z,25.26
2022-08-07T15:37:02.942Z,25.28
2022-08-07T15:39:16.223Z,25.35
2022-08-07T15:42:44.540Z,25.45
2022-08-07T15:47:59.899Z,25.51
2022-08-07T15:53:51.574Z,25.41
2022-08-07T15:56:16.994Z,25.27
2022-08-07T15:58:52.165Z,25.19
2022-08-07T16:01:38.802Z,25.12
2022-08-07T16:04:14.529Z,25.28
2022-08-07T16:06:49.940Z,25.15
2022-08-07T16:09:23.163Z,25.23
2022-08-07T16:12:04.467Z,25.06
2022-08-07T16:14:50.158Z,24.98
2022-08-07T16:18:02.470Z,25.18
2022-08-07T16:20:55.146Z,25.30
2022-08-07T16:23:58.841Z,25.12
2022-08-07T16:26:59.258Z,25.04
2022-08-07T16:30:11.264Z,25.13
2022-08-07T16:32:46.503Z,25.29
2022-08-07T16:35:51.471Z,25.12
2022-08-07T16:38:59.930Z,24.98
2022-08-07T16:41:53.978Z,25.08
2022-08-07T16:44:57.245Z,24.95
2022-08-07T16:47:56.887Z,24.88
2022-08-07T16:50:52.644Z,24.88
2022-08-07T16:54:02.226Z,24.72
2022-08-07T16:56:50.124Z,24.63
2022-08-07T16:59:46.566Z,24.59
2022-08-07T17:02:52.366Z,24.58
2022-08-07T17:06:18.945Z,24.53
2022-08-07T17:09:08.835Z,24.46
2022-08-07T17:12:05.360Z,24.41
2022-08-07T17:14:33.632Z,24.47
2022-08-07T17:17:07.405Z,24.43
2022-08-07T17:20:02.512Z,24.35
2022-08-07T17:22:37.995Z,24.40
2022-08-07T17:25:11.730Z,24.35
2022-08-07T17:27:51.758Z,24.46
2022-08-07T17:30:26.631Z,24.70
2022-08-07T17:34:08.496Z,24.45
2022-08-07T17:36:00.464Z,24.56
2022-08-07T17:38:35.484Z,24.34
2022-08-07T17:42:02.664Z,24.37
2022-08-07T17:44:05.914Z,24.40
2022-08-07T17:46:44.385Z,24.22
2022-08-07T17:49:24.460Z,24.42
2022-08-07T17:52:00.710Z,24.25
2022-08-07T17:54:54.022Z,24.23
2022-08-07T17:57:56.095Z,24.33
2022-08-07T18:00:33.304Z,24.26
2022-08-07T18:03:18.553Z,24.49
2022-08-07T18:06:03.489Z,24.30
2022-08-07T18:09:01.121Z,24.22
2022-08-07T18:12:06.877Z,24.23
2022-08-07T18:14:37.323Z,24.10
2022-08-07T18:17:11.098Z,24.04
2022-08-07T18:21:09.617Z,24.09
2022-08-07T18:22:40.205Z,24.28
2022-08-07T18:25:19.137Z,24.43
2022-08-07T18:28:34.166Z,24.12
2022-08-07T18:31:05.439Z,23.99
2022-08-07T18:34:04.969Z,23.96
2022-08-07T18:37:09.237Z,23.92
2022-08-07T18:40:06.518Z,24.08
2022-08-07T18:42:44.136Z,24.10
2022-08-07T18:45:43.341Z,23.98
2022-08-07T18:48:10.156Z,23.77
2022-08-07T18:51:09.687Z,23.65
2022-08-07T18:53:57.701Z,23.68
2022-08-07T18:56:35.824Z,23.60
2022-08-07T18:59:48.004Z,23.66
2022-08-07T19:02:42.183Z,23.65
2022-08-07T19:05:21.303Z,23.88
2022-08-07T19:07:59.287Z,23.69
2022-08-07T19:10:49.832Z,23.72
2022-08-07T19:13:27.420Z,23.68
2022-08-07T19:16:04.353Z,23.62
2022-08-07T19:18:59.294Z,23.51
2022-08-07T19:21:51.305Z,23.46
2022-08-07T19:24:30.855Z,23.47
2022-08-07T19:28:30.305Z,23.43
2022-08-07T19:31:01.228Z,23.47
2022-08-07T19:32:46.376Z,23.53
2022-08-07T19:35:22.370Z,23.49
2022-08-07T19:37:57.827Z,23.43
2022-08-07T19:40:31.755Z,23.43
2022-08-07T19:43:10.629Z,23.32
2022-08-07T19:46:09.474Z,23.23
2022-08-07T19:48:43.642Z,23.17
2022-08-07T19:51:20.251Z,23.19
2022-08-07T19:54:32.175Z,23.31
2022-08-07T19:57:51.656Z,23.29
2022-08-07T19:59:41.159Z,23.20
2022-08-07T20:02:19.692Z,23.14
2022-08-07T20:04:51.866Z,23.04
2022-08-07T20:07:47.637Z,22.98
2022-08-07T20:10:37.332Z,22.97
2022-08-07T20:13:22.366Z,22.93
2022-08-07T20:15:51.119Z,23.06
2022-08-07T20:18:32.841Z,23.10
2022-08-07T20:21:21.063Z,23.13
2022-08-07T20:23:57.982Z,23.43
2022-08-07T20:26:38.514Z,23.61
2022-08-07T20:29:47.051Z,23.58
2022-08-07T20:32:00.629Z,23.36
2022-08-07T20:34:49.237Z,23.17
2022-08-07T20:37:24.163Z,23.02
2022-08-07T20:40:04.058Z,22.90
2022-08-07T20:42:35.308Z,22.98
2022-08-07T20:45:33.419Z,22.97
2022-08-07T20:47:58.288Z,22.93
2022-08-07T20:50:31.666Z,22.97
2022-08-07T20:53:00.255Z,22.94
2022-08-07T20:55:31.972Z,23.09
2022-08-07T20:58:03.880Z,23.20
2022-08-07T21:00:42.638Z,23.24
2022-08-07T21:03:15.200Z,23.39
2022-08-07T21:05:54.937Z,23.21
2022-08-07T21:08:36.910Z,22.99
2022-08-07T21:11:12.261Z,22.83
2022-08-07T21:14:16.665Z,22.87
2022-08-07T21:16:55.896Z,23.12
2022-08-07T21:19:31.886Z,22.98
2022-08-07T21:22:05.211Z,23.02
2022-08-07T21:24:48.081Z,23.08
2022-08-07T21:27:25.651Z,23.02
2022-08-07T21:30:01.225Z,23.03
2022-08-07T21:32:46.756Z,23.05
2022-08-07T21:36:04.216Z,23.16
2022-08-07T21:38:21.551Z,23.23
2022-08-07T21:41:01.846Z,23.06
2022-08-07T21:43:55.567Z,23.07
2022-08-07T21:46:31.829Z,22.93
2022-08-07T21:49:14.578Z,22.83
2022-08-07T21:51:59.383Z,22.72
2022-08-07T21:54:37.415Z,22.66
2022-08-07T21:57:39.452Z,22.63
2022-08-07T22:00:22.750Z,22.82
2022-08-07T22:03:00.058Z,22.75
2022-08-07T22:05:45.333Z,22.71
2022-08-07T22:08:18.902Z,22.65
2022-08-07T22:10:50.728Z,22.50
2022-08-07T22:13:24.656Z,22.45
2022-08-07T22:16:43.462Z,22.43
2022-08-07T22:19:08.172Z,22.42
2022-08-07T22:22:01.742Z,22.50
2022-08-07T22:24:37.701Z,22.72
2022-08-07T22:27:13.605Z,22.59
2022-08-07T22:29:49.592Z,22.67
2022-08-07T22:32:25.340Z,22.73
2022-08-07T22:34:55.372Z,22.68
2022-08-07T22:38:02.954Z,22.62
2022-08-07T22:40:30.710Z,22.56
2022-08-07T22:43:06.250Z,22.46
2022-08-07T22:46:21.185Z,22.43
2022-08-07T22:49:06.688Z,22.35
2022-08-07T22:51:51.989Z,22.36
2022-08-07T22:54:52.275Z,22.39
2022-08-07T22:57:45.667Z,22.43
2022-08-07T23:00:18.871Z,22.58
2022-08-07T23:03:03.572Z,22.51
2022-08-07T23:06:06.874Z,22.50
2022-08-07T23:08:54.535Z,22.52
2022-08-07T23:11:41.233Z,22.55
2022-08-07T23:14:27.900Z,22.39
2022-08-07T23:17:21.653Z,22.50
2022-08-07T23:20:18.732Z,22.35
2022-08-07T23:23:00.909Z,22.25
2022-08-07T23:25:38.946Z,22.12
2022-08-07T23:28:29.388Z,21.98
2022-08-07T23:31:18.811Z,22.03
2022-08-07T23:34:37.605Z,22.14
2022-08-07T23:37:33.599Z,22.11
2022-08-07T23:40:15.685Z,22.18
2022-08-07T23:43:01.810Z,22.21
2022-08-07T23:46:03.328Z,22.20
2022-08-07T23:48:41.792Z,22.10
2022-08-07T23:53:01.866Z,22.10
2022-08-07T23:54:36.106Z,22.22
2022-08-07T23:57:22.199Z,22.07
